sensor_id;sensor_type;location;lat;lon;timestamp;pressure;altitude;pressure_sealevel;temperature;humidity
3590;BME280;1809;48.470;9.226;2024-03-23T00:51:07;-16454.97;;;10.26;100.00
3590;BME280;1809;48.470;9.226;2024-03-23T00:53:32;-16458.34;;;10.38;100.00
3590;BME280;1809;48.470;9.226;2024-03-23T00:55:59;-16457.78;;;10.36;100.00
3590;BME280;1809;48.470;9.226;2024-03-23T00:58:24;-16466.78;;;10.68;100.00
3590;BME280;1809;48.470;9.226;2024-03-23T01:00:49;-16470.41;;;10.82;100.00
3590;BME280;1809;48.470;9.226;2024-03-23T01:03:15;-16477.72;;;11.08;100.00
3590;BME280;1809;48.470;9.226;2024-03-23T01:05:40;-16483.91;;;11.30;100.00
3590;BME280;1809;48.470;9.226;2024-03-23T01:08:06;-16483.63;;;11.29;100.00
3590;BME280;1809;48.470;9.226;2024-03-23T01:10:31;-16483.63;;;11.29;100.00
3590;BME280;1809;48.470;9.226;2024-03-23T01:12:56;-16484.47;;;11.32;100.00
3590;BME280;1809;48.470;9.226;2024-03-23T01:15:22;-16481.25;;;11.20;100.00
3590;BME280;1809;48.470;9.226;2024-03-23T01:17:47;-16487.00;;;11.41;100.00
3590;BME280;1809;48.470;9.226;2024-03-23T01:20:12;-16485.16;;;11.34;100.00
3590;BME280;1809;48.470;9.226;2024-03-23T01:22:38;-16483.47;;;11.28;100.00
3590;BME280;1809;48.470;9.226;2024-03-23T01:25:03;-16481.09;;;11.20;100.00
3590;BME280;1809;48.470;9.226;2024-03-23T01:27:29;-16483.06;;;11.27;100.00
3590;BME280;1809;48.470;9.226;2024-03-23T01:29:54;-16484.88;;;11.33;100.00
3590;BME280;1809;48.470;9.226;2024-03-23T01:32:20;-16484.47;;;11.32;100.00
3590;BME280;1809;48.470;9.226;2024-03-23T01:34:45;-16484.47;;;11.32;100.00
3590;BME280;1809;48.470;9.226;2024-03-23T01:37:10;-16492.03;;;11.59;100.00
3590;BME280;1809;48.470;9.226;2024-03-23T01:39:36;-16487.84;;;11.44;100.00
3590;BME280;1809;48.470;9.226;2024-03-23T01:42:01;-16487.41;;;11.43;100.00
3590;BME280;1809;48.470;9.226;2024-03-23T01:44:26;-16491.63;;;11.58;100.00
3590;BME280;1809;48.470;9.226;2024-03-23T01:46:52;-16497.94;;;11.80;100.00
3590;BME280;1809;48.470;9.226;2024-03-23T01:49:17;-16501.44;;;11.93;100.00
3590;BME280;1809;48.470;9.226;2024-03-23T01:51:43;-16498.66;;;11.83;100.00
3590;BME280;1809;48.470;9.226;2024-03-23T01:54:10;-16496.25;;;11.74;100.00
3590;BME280;1809;48.470;9.226;2024-03-23T01:56:35;-16493.16;;;11.63;100.00
3590;BME280;1809;48.470;9.226;2024-03-23T01:59:05;-16497.38;;;11.78;100.00
3590;BME280;1809;48.470;9.226;2024-03-23T02:01:37;-16499.06;;;11.84;100.00
3590;BME280;1809;48.470;9.226;2024-03-23T02:04:02;-16498.50;;;11.82;100.00
3590;BME280;1809;48.470;9.226;2024-03-23T02:06:28;-16498.78;;;11.83;100.00
3590;BME280;1809;48.470;9.226;2024-03-23T02:08:54;-16503.69;;;12.01;100.00
3590;BME280;1809;48.470;9.226;2024-03-23T02:11:20;-16503.56;;;12.01;100.00
3590;BME280;1809;48.470;9.226;2024-03-23T02:13:45;-16506.66;;;12.12;100.00
3590;BME280;1809;48.470;9.226;2024-03-23T02:16:10;-16506.94;;;12.13;100.00
3590;BME280;1809;48.470;9.226;2024-03-23T02:18:36;-16509.31;;;12.21;100.00
3590;BME280;1809;48.470;9.226;2024-03-23T02:21:01;-16510.56;;;12.26;100.00
3590;BME280;1809;48.470;9.226;2024-03-23T02:23:27;-16510.28;;;12.25;100.00
3590;BME280;1809;48.470;9.226;2024-03-23T02:25:52;-16510.28;;;12.25;100.00
3590;BME280;1809;48.470;9.226;2024-03-23T02:28:21;-16510.84;;;12.27;100.00
3590;BME280;1809;48.470;9.226;2024-03-23T02:30:50;-16511.84;;;12.30;100.00
3590;BME280;1809;48.470;9.226;2024-03-23T02:33:15;-16507.63;;;12.15;100.00
3590;BME280;1809;48.470;9.226;2024-03-23T02:35:41;-16505.25;;;12.07;100.00
3590;BME280;1809;48.470;9.226;2024-03-23T02:38:06;-16505.25;;;12.07;100.00
3590;BME280;1809;48.470;9.226;2024-03-23T02:40:31;-16504.69;;;12.05;100.00
3590;BME280;1809;48.470;9.226;2024-03-23T02:42:57;-16505.25;;;12.07;100.00
3590;BME280;1809;48.470;9.226;2024-03-23T02:45:22;-16505.94;;;12.09;100.00
3590;BME280;1809;48.470;9.226;2024-03-23T02:47:47;-16508.91;;;12.20;100.00
3590;BME280;1809;48.470;9.226;2024-03-23T02:50:17;-16508.19;;;12.17;100.00
3590;BME280;1809;48.470;9.226;2024-03-23T02:52:43;-16505.66;;;12.08;100.00
3590;BME280;1809;48.470;9.226;2024-03-23T02:55:08;-16503.84;;;12.02;100.00
3590;BME280;1809;48.470;9.226;2024-03-23T02:57:33;-16502.28;;;11.96;100.00
3590;BME280;1809;48.470;9.226;2024-03-23T02:59:59;-16505.38;;;12.07;100.00
3590;BME280;1809;48.470;9.226;2024-03-23T03:02:24;-16508.63;;;12.19;100.00
3590;BME280;1809;48.470;9.226;2024-03-23T03:04:49;-16510.28;;;12.25;100.00
3590;BME280;1809;48.470;9.226;2024-03-23T03:07:15;-16508.34;;;12.18;100.00
3590;BME280;1809;48.470;9.226;2024-03-23T03:09:40;-16509.31;;;12.21;100.00
3590;BME280;1809;48.470;9.226;2024-03-23T03:12:06;-16509.88;;;12.23;100.00
3590;BME280;1809;48.470;9.226;2024-03-23T03:14:32;-16518.28;;;12.54;100.00
3590;BME280;1809;48.470;9.226;2024-03-23T03:16:57;-16517.59;;;12.51;100.00
3590;BME280;1809;48.470;9.226;2024-03-23T03:19:22;-16518.44;;;12.54;100.00
3590;BME280;1809;48.470;9.226;2024-03-23T03:21:48;-16519.69;;;12.59;100.00
3590;BME280;1809;48.470;9.226;2024-03-23T03:24:13;-16534.44;;;13.12;100.00
3590;BME280;1809;48.470;9.226;2024-03-23T03:26:39;-16541.03;;;13.35;100.00
3590;BME280;1809;48.470;9.226;2024-03-23T03:29:04;-16547.75;;;13.60;100.00
3590;BME280;1809;48.470;9.226;2024-03-23T03:31:30;-16553.50;;;13.80;100.00
3590;BME280;1809;48.470;9.226;2024-03-23T03:33:55;-16554.34;;;13.83;100.00
3590;BME280;1809;48.470;9.226;2024-03-23T03:36:20;-16562.34;;;14.12;100.00
3590;BME280;1809;48.470;9.226;2024-03-23T03:38:46;-16559.13;;;14.00;100.00
3590;BME280;1809;48.470;9.226;2024-03-23T03:41:11;-16557.72;;;13.95;100.00
3590;BME280;1809;48.470;9.226;2024-03-23T03:43:36;-16557.16;;;13.93;100.00
3590;BME280;1809;48.470;9.226;2024-03-23T03:46:03;-16556.31;;;13.90;100.00
3590;BME280;1809;48.470;9.226;2024-03-23T03:48:28;-16554.34;;;13.83;100.00
3590;BME280;1809;48.470;9.226;2024-03-23T03:50:54;-16552.66;;;13.77;100.00
3590;BME280;1809;48.470;9.226;2024-03-23T03:53:19;-16543.41;;;13.44;100.00
3590;BME280;1809;48.470;9.226;2024-03-23T03:55:45;-16544.53;;;13.48;100.00
3590;BME280;1809;48.470;9.226;2024-03-23T03:58:10;-16539.75;;;13.31;100.00
3590;BME280;1809;48.470;9.226;2024-03-23T04:00:35;-16537.25;;;13.22;100.00
3590;BME280;1809;48.470;9.226;2024-03-23T04:03:01;-16536.41;;;13.19;100.00
3590;BME280;1809;48.470;9.226;2024-03-23T04:05:27;-16534.44;;;13.12;100.00
3590;BME280;1809;48.470;9.226;2024-03-23T04:07:52;-16534.44;;;13.12;100.00
3590;BME280;1809;48.470;9.226;2024-03-23T04:10:18;-16532.59;;;13.05;100.00
3590;BME280;1809;48.470;9.226;2024-03-23T04:12:43;-16529.09;;;12.92;100.00
3590;BME280;1809;48.470;9.226;2024-03-23T04:15:09;-16532.88;;;13.06;100.00
3590;BME280;1809;48.470;9.226;2024-03-23T04:17:35;-16535.69;;;13.16;100.00
3590;BME280;1809;48.470;9.226;2024-03-23T04:20:01;-16536.97;;;13.21;100.00
3590;BME280;1809;48.470;9.226;2024-03-23T04:22:28;-16538.38;;;13.26;100.00
3590;BME280;1809;48.470;9.226;2024-03-23T04:24:54;-16540.31;;;13.33;100.00
3590;BME280;1809;48.470;9.226;2024-03-23T04:27:19;-16539.47;;;13.30;100.00
3590;BME280;1809;48.470;9.226;2024-03-23T04:29:51;-16536.13;;;13.18;100.00
3590;BME280;1809;48.470;9.226;2024-03-23T04:32:17;-16539.34;;;13.29;100.00
3590;BME280;1809;48.470;9.226;2024-03-23T04:34:43;-16541.72;;;13.38;100.00
3590;BME280;1809;48.470;9.226;2024-03-23T04:37:09;-16541.72;;;13.38;100.00
3590;BME280;1809;48.470;9.226;2024-03-23T04:39:37;-16541.44;;;13.37;100.00
3590;BME280;1809;48.470;9.226;2024-03-23T04:42:04;-16542.00;;;13.39;100.00
3590;BME280;1809;48.470;9.226;2024-03-23T04:44:29;-16542.56;;;13.41;100.00
3590;BME280;1809;48.470;9.226;2024-03-23T04:46:56;-16543.41;;;13.44;100.00
3590;BME280;1809;48.470;9.226;2024-03-23T04:49:21;-16540.31;;;13.33;100.00
3590;BME280;1809;48.470;9.226;2024-03-23T04:51:46;-16543.97;;;13.46;100.00
3590;BME280;1809;48.470;9.226;2024-03-23T04:54:12;-16541.31;;;13.36;100.00
3590;BME280;1809;48.470;9.226;2024-03-23T04:56:38;-16540.47;;;13.33;100.00
3590;BME280;1809;48.470;9.226;2024-03-23T04:59:03;-16542.44;;;13.40;100.00
3590;BME280;1809;48.470;9.226;2024-03-23T05:01:33;-16546.22;;;13.54;100.00
3590;BME280;1809;48.470;9.226;2024-03-23T05:03:58;-16550.00;;;13.68;100.00
3590;BME280;1809;48.470;9.226;2024-03-23T05:06:25;-16550.00;;;13.68;100.00
3590;BME280;1809;48.470;9.226;2024-03-23T05:08:51;-16552.25;;;13.76;100.00
3590;BME280;1809;48.470;9.226;2024-03-23T05:11:16;-16551.97;;;13.75;100.00
3590;BME280;1809;48.470;9.226;2024-03-23T05:13:42;-16555.06;;;13.86;100.00
3590;BME280;1809;48.470;9.226;2024-03-23T05:16:08;-16559.13;;;14.00;100.00
3590;BME280;1809;48.470;9.226;2024-03-23T05:18:34;-16561.66;;;14.10;100.00
3590;BME280;1809;48.470;9.226;2024-03-23T05:21:00;-16561.66;;;14.10;100.00
3590;BME280;1809;48.470;9.226;2024-03-23T05:23:25;-16563.03;;;14.15;100.00
3590;BME280;1809;48.470;9.226;2024-03-23T05:25:51;-16558.84;;;13.99;100.00
3590;BME280;1809;48.470;9.226;2024-03-23T05:28:20;-16563.03;;;14.15;100.00
3590;BME280;1809;48.470;9.226;2024-03-23T05:30:55;-16566.56;;;14.27;100.00
3590;BME280;1809;48.470;9.226;2024-03-23T05:33:22;-16555.47;;;13.87;100.00
3590;BME280;1809;48.470;9.226;2024-03-23T05:35:59;-16547.47;;;13.59;100.00
3590;BME280;1809;48.470;9.226;2024-03-23T05:38:24;-16532.47;;;13.05;100.00
3590;BME280;1809;48.470;9.226;2024-03-23T05:40:54;-16509.59;;;12.22;100.00
3590;BME280;1809;48.470;9.226;2024-03-23T05:43:19;-16485.72;;;11.37;100.00
3590;BME280;1809;48.470;9.226;2024-03-23T05:45:44;36583.13;;;10.66;100.00
3590;BME280;1809;48.470;9.226;2024-03-23T05:48:10;88033.41;;;10.21;100.00
3590;BME280;1809;48.470;9.226;2024-03-23T05:50:35;112985.78;;;9.96;100.00
3590;BME280;1809;48.470;9.226;2024-03-23T05:53:01;127422.94;;;9.86;100.00
3590;BME280;1809;48.470;9.226;2024-03-23T05:55:26;135003.06;;;9.79;100.00
3590;BME280;1809;48.470;9.226;2024-03-23T05:57:52;139505.53;;;9.82;100.00
3590;BME280;1809;48.470;9.226;2024-03-23T06:00:18;141537.84;;;9.62;100.00
3590;BME280;1809;48.470;9.226;2024-03-23T06:02:43;143252.38;;;9.55;100.00
3590;BME280;1809;48.470;9.226;2024-03-23T06:05:11;144647.25;;;9.59;100.00
3590;BME280;1809;48.470;9.226;2024-03-23T06:07:37;145318.47;;;9.50;100.00
3590;BME280;1809;48.470;9.226;2024-03-23T06:10:03;145999.31;;;9.45;100.00
3590;BME280;1809;48.470;9.226;2024-03-23T06:12:29;146336.09;;;9.41;100.00
3590;BME280;1809;48.470;9.226;2024-03-23T06:14:54;146687.50;;;9.43;100.00
3590;BME280;1809;48.470;9.226;2024-03-23T06:17:19;146682.59;;;9.41;100.00
3590;BME280;1809;48.470;9.226;2024-03-23T06:19:45;147031.59;;;9.42;100.00
3590;BME280;1809;48.470;9.226;2024-03-23T06:22:10;146306.97;;;9.29;100.00
3590;BME280;1809;48.470;9.226;2024-03-23T06:24:35;146309.41;;;9.30;100.00
3590;BME280;1809;48.470;9.226;2024-03-23T06:27:01;146664.38;;;9.34;100.00
3590;BME280;1809;48.470;9.226;2024-03-23T06:29:26;146313.03;;;9.32;100.00
3590;BME280;1809;48.470;9.226;2024-03-23T06:31:54;146654.63;;;9.30;100.00
3590;BME280;1809;48.470;9.226;2024-03-23T06:34:20;146657.06;;;9.31;100.00
3590;BME280;1809;48.470;9.226;2024-03-23T06:36:47;146289.97;;;9.22;100.00
3590;BME280;1809;48.470;9.226;2024-03-23T06:39:12;146282.69;;;9.19;100.00
3590;BME280;1809;48.470;9.226;2024-03-23T06:41:41;146286.34;;;9.21;100.00
3590;BME280;1809;48.470;9.226;2024-03-23T06:44:07;145552.59;;;9.03;100.00
3590;BME280;1809;48.470;9.226;2024-03-23T06:46:32;144827.84;;;8.90;100.00
3590;BME280;1809;48.470;9.226;2024-03-23T06:48:57;144473.44;;;8.86;100.00
3590;BME280;1809;48.470;9.226;2024-03-23T06:51:22;144465.03;;;8.83;100.00
3590;BME280;1809;48.470;9.226;2024-03-23T06:53:49;143023.25;;;8.58;100.00
3590;BME280;1809;48.470;9.226;2024-03-23T06:56:15;141226.03;;;8.28;100.00
3590;BME280;1809;48.470;9.226;2024-03-23T06:58:40;140526.03;;;8.24;100.00
3590;BME280;1809;48.470;9.226;2024-03-23T07:01:05;139467.25;;;8.14;100.00
3590;BME280;1809;48.470;9.226;2024-03-23T07:03:32;138404.53;;;8.02;100.00
3590;BME280;1809;48.470;9.226;2024-03-23T07:05:58;137712.44;;;8.01;100.00
3590;BME280;1809;48.470;9.226;2024-03-23T07:08:23;136317.47;;;7.94;100.00
3590;BME280;1809;48.470;9.226;2024-03-23T07:10:49;135262.25;;;7.84;100.00
3590;BME280;1809;48.470;9.226;2024-03-23T07:13:14;133872.16;;;7.79;100.00
3590;BME280;1809;48.470;9.226;2024-03-23T07:15:40;133521.16;;;7.76;100.00
3590;BME280;1809;48.470;9.226;2024-03-23T07:18:05;132473.03;;;7.69;100.00
3590;BME280;1809;48.470;9.226;2024-03-23T07:20:30;132839.19;;;7.79;100.00
3590;BME280;1809;48.470;9.226;2024-03-23T07:22:56;133570.97;;;7.98;100.00
3590;BME280;1809;48.470;9.226;2024-03-23T07:25:22;133595.31;;;8.09;100.00
3590;BME280;1809;48.470;9.226;2024-03-23T07:27:48;133969.81;;;8.23;100.00
3590;BME280;1809;48.470;9.226;2024-03-23T07:30:14;133994.31;;;8.34;100.00
3590;BME280;1809;48.470;9.226;2024-03-23T07:32:39;133320.44;;;8.41;100.00
3590;BME280;1809;48.470;9.226;2024-03-23T07:35:05;132280.03;;;8.38;100.00
3590;BME280;1809;48.470;9.226;2024-03-23T07:37:30;131228.09;;;8.30;100.00
3590;BME280;1809;48.470;9.226;2024-03-23T07:39:57;131259.59;;;8.44;100.00
3590;BME280;1809;48.470;9.226;2024-03-23T07:42:23;130562.06;;;8.40;100.00
3590;BME280;1809;48.470;9.226;2024-03-23T07:44:48;130230.66;;;8.46;100.00
3590;BME280;1809;48.470;9.226;2024-03-23T07:47:14;129884.09;;;8.45;100.00
3590;BME280;1809;48.470;9.226;2024-03-23T07:49:39;130243.56;;;8.52;100.00
3590;BME280;1809;48.470;9.226;2024-03-23T07:52:05;130241.41;;;8.51;100.00
3590;BME280;1809;48.470;9.226;2024-03-23T07:54:31;130928.13;;;8.50;100.00
3590;BME280;1809;48.470;9.226;2024-03-23T07:56:56;131641.16;;;8.61;100.00
3590;BME280;1809;48.470;9.226;2024-03-23T07:59:21;132009.81;;;8.73;100.00
3590;BME280;1809;48.470;9.226;2024-03-23T08:01:46;131321.53;;;8.73;100.00
3590;BME280;1809;48.470;9.226;2024-03-23T08:04:12;129227.53;;;8.60;100.00
3590;BME280;1809;48.470;9.226;2024-03-23T08:06:37;127857.75;;;8.64;100.00
3590;BME280;1809;48.470;9.226;2024-03-23T08:09:03;127873.63;;;8.72;100.00
3590;BME280;1809;48.470;9.226;2024-03-23T08:11:29;126489.38;;;8.68;100.00
3590;BME280;1809;48.470;9.226;2024-03-23T08:13:56;125793.84;;;8.64;100.00
3590;BME280;1809;48.470;9.226;2024-03-23T08:16:22;126133.72;;;8.62;100.00
3590;BME280;1809;48.470;9.226;2024-03-23T08:18:47;123669.75;;;8.35;100.00
3590;BME280;1809;48.470;9.226;2024-03-23T08:21:13;117745.31;;;7.90;100.00
3590;BME280;1809;48.470;9.226;2024-03-23T08:23:39;116712.09;;;7.87;100.00
3590;BME280;1809;48.470;9.226;2024-03-23T08:26:10;116707.25;;;7.85;100.00
3590;BME280;1809;48.470;9.226;2024-03-23T08:28:36;117755.03;;;7.95;100.00
3590;BME280;1809;48.470;9.226;2024-03-23T08:31:05;118132.13;;;8.13;100.00
3590;BME280;1809;48.470;9.226;2024-03-23T08:33:30;116441.44;;;8.25;100.00
3590;BME280;1809;48.470;9.226;2024-03-23T08:36:06;113019.47;;;8.28;100.00
3590;BME280;1809;48.470;9.226;2024-03-23T08:38:32;109596.88;;;8.29;100.00
3590;BME280;1809;48.470;9.226;2024-03-23T08:41:06;106883.50;;;8.43;100.00
3590;BME280;1809;48.470;9.226;2024-03-23T08:43:33;105883.53;;;8.58;100.00
3590;BME280;1809;48.470;9.226;2024-03-23T08:48:31;91900.16;;;8.67;100.00
3590;BME280;1809;48.470;9.226;2024-03-23T08:51:03;77955.53;;;8.65;100.00
3590;BME280;1809;48.470;9.226;2024-03-23T08:53:29;64064.34;;;8.60;100.00
3590;BME280;1809;48.470;9.226;2024-03-23T08:55:55;38797.38;;;8.38;100.00
3590;BME280;1809;48.470;9.226;2024-03-23T08:58:21;3844.19;;;8.23;100.00
3590;BME280;1809;48.470;9.226;2024-03-23T09:00:47;-16395.94;;;8.14;100.00
3590;BME280;1809;48.470;9.226;2024-03-23T09:03:12;-16393.97;;;8.07;100.00
3590;BME280;1809;48.470;9.226;2024-03-23T09:05:40;-16389.63;;;7.91;100.00
3590;BME280;1809;48.470;9.226;2024-03-23T09:08:06;-16390.03;;;7.93;100.00
3590;BME280;1809;48.470;9.226;2024-03-23T09:10:34;-16392.84;;;8.03;100.00
3590;BME280;1809;48.470;9.226;2024-03-23T09:13:00;-16399.31;;;8.26;100.00
3590;BME280;1809;48.470;9.226;2024-03-23T09:15:25;-16403.69;;;8.42;100.00
3590;BME280;1809;48.470;9.226;2024-03-23T09:17:50;-16402.97;;;8.39;100.00
3590;BME280;1809;48.470;9.226;2024-03-23T09:20:16;-16401.56;;;8.34;100.00
3590;BME280;1809;48.470;9.226;2024-03-23T09:22:41;-16399.03;;;8.25;100.00
3590;BME280;1809;48.470;9.226;2024-03-23T09:25:07;-16394.97;;;8.10;100.00
3590;BME280;1809;48.470;9.226;2024-03-23T09:27:32;-16395.81;;;8.13;100.00
3590;BME280;1809;48.470;9.226;2024-03-23T09:29:57;-16394.13;;;8.07;100.00
3590;BME280;1809;48.470;9.226;2024-03-23T09:32:23;-16394.97;;;8.10;100.00
3590;BME280;1809;48.470;9.226;2024-03-23T09:34:48;-16391.88;;;7.99;100.00
3590;BME280;1809;48.470;9.226;2024-03-23T09:37:13;-16391.03;;;7.96;100.00
3590;BME280;1809;48.470;9.226;2024-03-23T09:39:38;-16389.47;;;7.91;100.00
3590;BME280;1809;48.470;9.226;2024-03-23T09:42:04;-16387.94;;;7.85;100.00
3590;BME280;1809;48.470;9.226;2024-03-23T09:44:31;-16388.50;;;7.87;100.00
3590;BME280;1809;48.470;9.226;2024-03-23T09:46:56;-16393.84;;;8.06;100.00
3590;BME280;1809;48.470;9.226;2024-03-23T09:49:22;-16398.75;;;8.24;100.00
3590;BME280;1809;48.470;9.226;2024-03-23T09:51:47;-16401.72;;;8.35;100.00
3590;BME280;1809;48.470;9.226;2024-03-23T09:54:12;-16405.94;;;8.50;100.00
3590;BME280;1809;48.470;9.226;2024-03-23T09:56:38;-16409.03;;;8.61;100.00
3590;BME280;1809;48.470;9.226;2024-03-23T09:59:03;-16414.38;;;8.80;100.00
3590;BME280;1809;48.470;9.226;2024-03-23T10:01:30;-16412.13;;;8.72;100.00
3590;BME280;1809;48.470;9.226;2024-03-23T10:03:55;-16414.63;;;8.81;100.00
3590;BME280;1809;48.470;9.226;2024-03-23T10:06:23;-16415.34;;;8.84;100.00
3590;BME280;1809;48.470;9.226;2024-03-23T10:08:52;-16411.56;;;8.70;100.00
3590;BME280;1809;48.470;9.226;2024-03-23T10:11:20;-16413.66;;;8.78;100.00
3590;BME280;1809;48.470;9.226;2024-03-23T10:13:46;-16421.81;;;9.07;100.00
3590;BME280;1809;48.470;9.226;2024-03-23T10:16:20;-16429.97;;;9.36;100.00
3590;BME280;1809;48.470;9.226;2024-03-23T10:18:45;-16434.19;;;9.51;100.00
3590;BME280;1809;48.470;9.226;2024-03-23T10:21:11;-16432.63;;;9.46;100.00
3590;BME280;1809;48.470;9.226;2024-03-23T10:23:40;-16446.13;;;9.94;100.00
3590;BME280;1809;48.470;9.226;2024-03-23T10:28:58;-16448.22;;;10.02;100.00
3590;BME280;1809;48.470;9.226;2024-03-23T10:31:33;-16429.97;;;9.36;100.00
3590;BME280;1809;48.470;9.226;2024-03-23T10:34:00;-16428.13;;;9.30;100.00
3590;BME280;1809;48.470;9.226;2024-03-23T10:36:26;-16431.09;;;9.40;100.00
3590;BME280;1809;48.470;9.226;2024-03-23T10:38:52;-16441.19;;;9.77;100.00
3590;BME280;1809;48.470;9.226;2024-03-23T10:41:18;-16445.28;;;9.91;100.00
3590;BME280;1809;48.470;9.226;2024-03-23T10:43:48;-16448.50;;;10.03;100.00
3590;BME280;1809;48.470;9.226;2024-03-23T10:46:14;-16456.38;;;10.31;100.00
3590;BME280;1809;48.470;9.226;2024-03-23T10:48:39;-16460.88;;;10.47;100.00
3590;BME280;1809;48.470;9.226;2024-03-23T10:51:09;-16471.25;;;10.85;100.00
3590;BME280;1809;48.470;9.226;2024-03-23T10:53:35;-16489.22;;;11.49;100.00
3590;BME280;1809;48.470;9.226;2024-03-23T10:56:02;-16495.69;;;11.72;100.00
3590;BME280;1809;48.470;9.226;2024-03-23T10:58:34;-16509.59;;;12.22;100.00
3590;BME280;1809;48.470;9.226;2024-03-23T11:01:02;-16509.16;;;12.21;100.00
3590;BME280;1809;48.470;9.226;2024-03-23T11:03:35;-16502.44;;;11.97;100.00
3590;BME280;1809;48.470;9.226;2024-03-23T11:06:05;-16492.31;;;11.60;100.00
3590;BME280;1809;48.470;9.226;2024-03-23T11:11:20;-16361.50;;;6.90;100.00
3590;BME280;1809;48.470;9.226;2024-03-23T11:13:51;-16332.09;;;5.85;100.00
3590;BME280;1809;48.470;9.226;2024-03-23T11:16:27;-16323.94;;;5.56;100.00
3590;BME280;1809;48.470;9.226;2024-03-23T11:18:53;-16322.09;;;5.49;100.00
3590;BME280;1809;48.470;9.226;2024-03-23T11:21:53;-9734.22;;;5.54;100.00
3590;BME280;1809;48.470;9.226;2024-03-23T11:24:20;30307.13;;;5.94;100.00
3590;BME280;1809;48.470;9.226;2024-03-23T11:26:46;46685.78;;;6.13;100.00
3590;BME280;1809;48.470;9.226;2024-03-23T11:29:13;49038.38;;;6.22;100.00
3590;BME280;1809;48.470;9.226;2024-03-23T11:31:38;55419.91;;;6.30;100.00
3590;BME280;1809;48.470;9.226;2024-03-23T11:34:05;64186.38;;;6.53;100.00
3590;BME280;1809;48.470;9.226;2024-03-23T11:36:30;61162.13;;;6.59;100.00
3590;BME280;1809;48.470;9.226;2024-03-23T11:38:55;61526.78;;;6.87;100.00
3590;BME280;1809;48.470;9.226;2024-03-23T11:41:21;51774.59;;;6.87;100.00
3590;BME280;1809;48.470;9.226;2024-03-23T11:43:46;20020.66;;;6.76;100.00
3590;BME280;1809;48.470;9.226;2024-03-23T11:46:22;-5309.13;;;6.86;100.00
3590;BME280;1809;48.470;9.226;2024-03-23T11:48:50;-16362.47;;;6.94;100.00
3590;BME280;1809;48.470;9.226;2024-03-23T11:51:17;-16364.88;;;7.02;100.00
3590;BME280;1809;48.470;9.226;2024-03-23T11:53:42;-16367.13;;;7.11;100.00
3590;BME280;1809;48.470;9.226;2024-03-23T11:56:08;-16367.81;;;7.13;100.00
3590;BME280;1809;48.470;9.226;2024-03-23T11:58:34;-16365.00;;;7.03;100.00
3590;BME280;1809;48.470;9.226;2024-03-23T12:01:02;-16363.59;;;6.98;100.00
3590;BME280;1809;48.470;9.226;2024-03-23T12:03:28;-16357.97;;;6.78;100.00
3590;BME280;1809;48.470;9.226;2024-03-23T12:05:58;-16357.69;;;6.77;100.00
3590;BME280;1809;48.470;9.226;2024-03-23T12:08:25;-16357.13;;;6.75;100.00
3590;BME280;1809;48.470;9.226;2024-03-23T12:11:16;-16355.59;;;6.69;100.00
3590;BME280;1809;48.470;9.226;2024-03-23T12:13:43;-16355.59;;;6.69;100.00
3590;BME280;1809;48.470;9.226;2024-03-23T12:16:14;-16350.66;;;6.52;100.00
3590;BME280;1809;48.470;9.226;2024-03-23T12:18:41;-16348.97;;;6.45;100.00
3590;BME280;1809;48.470;9.226;2024-03-23T12:21:06;-16350.66;;;6.52;100.00
3590;BME280;1809;48.470;9.226;2024-03-23T12:23:32;-16349.81;;;6.48;100.00
3590;BME280;1809;48.470;9.226;2024-03-23T12:25:58;-16350.09;;;6.49;100.00
3590;BME280;1809;48.470;9.226;2024-03-23T12:28:23;-16349.25;;;6.46;100.00
3590;BME280;1809;48.470;9.226;2024-03-23T12:30:49;-16349.25;;;6.46;100.00
3590;BME280;1809;48.470;9.226;2024-03-23T12:33:14;-16345.47;;;6.33;100.00
3590;BME280;1809;48.470;9.226;2024-03-23T12:35:39;-16345.03;;;6.31;100.00
3590;BME280;1809;48.470;9.226;2024-03-23T12:38:04;-16346.16;;;6.35;100.00
3590;BME280;1809;48.470;9.226;2024-03-23T12:40:30;-16348.13;;;6.42;100.00
3590;BME280;1809;48.470;9.226;2024-03-23T12:42:55;-16354.88;;;6.67;100.00
3590;BME280;1809;48.470;9.226;2024-03-23T12:45:21;-16362.47;;;6.94;100.00
3590;BME280;1809;48.470;9.226;2024-03-23T12:47:47;-16369.09;;;7.18;100.00
3590;BME280;1809;48.470;9.226;2024-03-23T12:50:12;-16377.38;;;7.47;100.00
3590;BME280;1809;48.470;9.226;2024-03-23T12:52:37;-16381.59;;;7.63;100.00
3590;BME280;1809;48.470;9.226;2024-03-23T12:55:03;-16381.03;;;7.61;100.00
3590;BME280;1809;48.470;9.226;2024-03-23T12:57:31;-16383.00;;;7.68;100.00
3590;BME280;1809;48.470;9.226;2024-03-23T12:59:56;-16388.34;;;7.87;100.00
3590;BME280;1809;48.470;9.226;2024-03-23T13:02:22;-16395.25;;;8.11;100.00
3590;BME280;1809;48.470;9.226;2024-03-23T13:04:54;-16402.13;;;8.36;100.00
3590;BME280;1809;48.470;9.226;2024-03-23T13:07:20;-16413.25;;;8.76;100.00
3590;BME280;1809;48.470;9.226;2024-03-23T13:09:46;-16408.59;;;8.59;100.00
3590;BME280;1809;48.470;9.226;2024-03-23T13:12:11;-16399.47;;;8.27;100.00
3590;BME280;1809;48.470;9.226;2024-03-23T13:14:38;-16397.22;;;8.19;100.00
3590;BME280;1809;48.470;9.226;2024-03-23T13:17:03;-16388.91;;;7.89;100.00
3590;BME280;1809;48.470;9.226;2024-03-23T13:19:29;-16391.59;;;7.98;100.00
3590;BME280;1809;48.470;9.226;2024-03-23T13:21:59;-16396.22;;;8.15;100.00
3590;BME280;1809;48.470;9.226;2024-03-23T13:24:26;-16400.16;;;8.29;100.00
3590;BME280;1809;48.470;9.226;2024-03-23T13:26:53;-16404.09;;;8.43;100.00
3590;BME280;1809;48.470;9.226;2024-03-23T13:29:18;-16407.19;;;8.54;100.00
3590;BME280;1809;48.470;9.226;2024-03-23T13:31:45;-16410.28;;;8.65;100.00
3590;BME280;1809;48.470;9.226;2024-03-23T13:34:10;-16415.75;;;8.85;100.00
3590;BME280;1809;48.470;9.226;2024-03-23T13:36:35;-16416.75;;;8.89;100.00
3590;BME280;1809;48.470;9.226;2024-03-23T13:39:02;-16416.59;;;8.88;100.00
3590;BME280;1809;48.470;9.226;2024-03-23T13:41:31;-16419.13;;;8.97;100.00
3590;BME280;1809;48.470;9.226;2024-03-23T13:43:57;-16414.63;;;8.81;100.00
3590;BME280;1809;48.470;9.226;2024-03-23T13:46:22;-16410.72;;;8.67;100.00
3590;BME280;1809;48.470;9.226;2024-03-23T13:48:47;-16417.03;;;8.90;100.00
3590;BME280;1809;48.470;9.226;2024-03-23T13:51:13;-16428.00;;;9.29;100.00
3590;BME280;1809;48.470;9.226;2024-03-23T13:53:38;-16436.72;;;9.60;100.00
3590;BME280;1809;48.470;9.226;2024-03-23T13:56:03;-16443.72;;;9.86;100.00
3590;BME280;1809;48.470;9.226;2024-03-23T13:58:29;-16449.22;;;10.05;100.00
3590;BME280;1809;48.470;9.226;2024-03-23T14:00:56;-16454.69;;;10.25;100.00